createdAt,value
2018-05-27T00:01:07.339Z,19.90
2018-05-27T00:03:33.691Z,19.90
2018-05-27T00:08:32.965Z,19.90
2018-05-27T00:10:59.265Z,19.80
2018-05-27T00:13:26.272Z,19.80
2018-05-27T00:15:52.560Z,19.80
2018-05-27T00:18:18.838Z,19.70
2018-05-27T00:20:45.081Z,19.70
2018-05-27T00:23:12.862Z,19.70
2018-05-27T00:25:39.143Z,19.70
2018-05-27T00:28:05.385Z,19.70
2018-05-27T00:30:31.775Z,19.70
2018-05-27T00:32:58.801Z,19.60
2018-05-27T00:35:25.842Z,19.60
2018-05-27T00:37:52.118Z,19.60
2018-05-27T00:40:18.373Z,19.60
2018-05-27T00:42:44.686Z,19.60
2018-05-27T00:45:11.006Z,19.60
2018-05-27T00:47:37.293Z,19.60
2018-05-27T00:50:04.321Z,19.60
2018-05-27T00:52:30.613Z,19.50
2018-05-27T00:54:56.877Z,19.50
2018-05-27T00:57:23.165Z,19.50
2018-05-27T00:59:49.486Z,19.50
2018-05-27T01:02:16.474Z,19.50
2018-05-27T01:04:42.742Z,19.40
2018-05-27T01:07:09.785Z,19.40
2018-05-27T01:09:36.806Z,19.40
2018-05-27T01:12:03.060Z,19.30
2018-05-27T01:14:30.084Z,19.30
2018-05-27T01:16:56.339Z,19.20
2018-05-27T01:19:22.624Z,19.20
2018-05-27T01:21:48.913Z,19.20
2018-05-27T01:24:15.192Z,19.10
2018-05-27T01:26:41.513Z,19.10
2018-05-27T01:29:07.794Z,19.10
2018-05-27T01:31:34.834Z,19.00
2018-05-27T01:34:01.103Z,18.90
2018-05-27T01:36:27.379Z,18.90
2018-05-27T01:38:53.624Z,18.90
2018-05-27T01:41:20.750Z,18.90
2018-05-27T01:43:47.048Z,18.90
2018-05-27T01:46:13.331Z,18.90
2018-05-27T01:48:40.395Z,18.80
2018-05-27T01:51:07.449Z,18.80
2018-05-27T01:53:33.745Z,18.80
2018-05-27T01:56:00.008Z,18.80
2018-05-27T01:58:26.297Z,18.80
2018-05-27T02:00:52.596Z,18.80
2018-05-27T02:03:18.917Z,18.80
2018-05-27T02:05:45.914Z,18.70
2018-05-27T02:08:12.944Z,18.70
2018-05-27T02:10:39.227Z,18.70
2018-05-27T02:13:05.514Z,18.70
2018-05-27T02:15:31.773Z,18.60
2018-05-27T02:17:58.766Z,18.60
2018-05-27T02:20:25.083Z,18.60
2018-05-27T02:22:51.405Z,18.60
2018-05-27T02:25:17.661Z,18.70
2018-05-27T02:27:43.956Z,18.60
2018-05-27T02:30:10.250Z,18.60
2018-05-27T02:32:37.265Z,18.60
2018-05-27T02:35:03.561Z,18.60
2018-05-27T02:37:29.823Z,18.60
2018-05-27T02:39:56.097Z,18.60
2018-05-27T02:42:23.141Z,18.50
2018-05-27T02:44:50.136Z,18.50
2018-05-27T02:47:16.448Z,18.40
2018-05-27T02:49:42.739Z,18.50
2018-05-27T02:52:08.990Z,18.50
2018-05-27T02:54:35.995Z,18.50
2018-05-27T02:57:02.281Z,18.50
2018-05-27T02:59:28.554Z,18.50
2018-05-27T03:01:54.853Z,18.40
2018-05-27T03:04:21.174Z,18.40
2018-05-27T03:06:47.457Z,18.40
2018-05-27T03:09:14.477Z,18.40
2018-05-27T03:11:40.792Z,18.40
2018-05-27T03:14:07.051Z,18.40
2018-05-27T03:16:33.347Z,18.40
2018-05-27T03:18:59.666Z,18.40
2018-05-27T03:21:25.976Z,18.40
2018-05-27T03:23:52.998Z,18.50
2018-05-27T03:26:19.288Z,18.40
2018-05-27T03:28:45.553Z,18.50
2018-05-27T03:31:12.054Z,18.50
2018-05-27T03:33:38.339Z,18.50
2018-05-27T03:36:04.570Z,18.50
2018-05-27T03:38:31.589Z,18.60
2018-05-27T03:40:57.972Z,18.60
2018-05-27T03:43:24.248Z,18.70
2018-05-27T03:45:50.548Z,18.70
2018-05-27T03:48:16.902Z,18.80
2018-05-27T03:50:43.138Z,18.90
2018-05-27T03:53:09.398Z,19.00
2018-05-27T03:55:36.448Z,19.20
2018-05-27T03:58:02.770Z,19.20
2018-05-27T04:00:29.032Z,19.30
2018-05-27T04:02:55.359Z,19.40
2018-05-27T04:05:34.109Z,19.50
2018-05-27T04:08:12.782Z,19.60
2018-05-27T04:10:39.816Z,19.80
2018-05-27T04:13:06.074Z,19.80
2018-05-27T04:15:32.318Z,19.90
2018-05-27T04:17:58.608Z,20.00
2018-05-27T04:20:24.886Z,20.10
2018-05-27T04:22:51.200Z,20.20
2018-05-27T04:25:17.484Z,20.30
2018-05-27T04:27:43.754Z,20.50
2018-05-27T04:30:10.796Z,21.40
2018-05-27T04:32:37.097Z,21.30
2018-05-27T04:35:03.393Z,21.90
2018-05-27T04:37:29.713Z,22.20
2018-05-27T04:39:55.966Z,22.40
2018-05-27T04:42:22.240Z,22.50
2018-05-27T04:44:48.551Z,22.50
2018-05-27T04:47:14.813Z,22.50
2018-05-27T04:49:41.064Z,22.60
2018-05-27T04:52:07.422Z,23.20
2018-05-27T04:54:33.716Z,23.80
2018-05-27T04:56:59.969Z,24.10
2018-05-27T04:59:26.260Z,24.10
2018-05-27T05:01:52.521Z,24.30
2018-05-27T05:04:18.758Z,24.50
2018-05-27T05:06:45.049Z,24.30
2018-05-27T05:09:11.318Z,24.10
2018-05-27T05:11:37.613Z,23.90
2018-05-27T05:14:04.657Z,23.60
2018-05-27T05:16:30.931Z,23.60
2018-05-27T05:18:57.195Z,23.50
2018-05-27T05:21:24.217Z,23.30
2018-05-27T05:23:51.973Z,23.20
2018-05-27T05:26:18.268Z,23.20
2018-05-27T05:28:45.264Z,23.20
2018-05-27T05:31:11.563Z,23.10
2018-05-27T05:33:37.872Z,23.20
2018-05-27T05:36:04.193Z,23.30
2018-05-27T05:38:30.469Z,23.30
2018-05-27T05:40:56.717Z,23.40
2018-05-27T05:43:24.501Z,23.50
2018-05-27T05:45:50.802Z,23.50
2018-05-27T05:48:18.554Z,23.60
2018-05-27T05:50:44.870Z,23.60
2018-05-27T05:53:11.170Z,23.50
2018-05-27T05:55:37.470Z,23.50
2018-05-27T05:58:03.743Z,23.30
2018-05-27T06:00:30.082Z,23.10
2018-05-27T06:02:56.346Z,23.00
2018-05-27T06:05:22.633Z,22.80
2018-05-27T06:07:48.903Z,22.60
2018-05-27T06:10:15.157Z,22.50
2018-05-27T06:12:41.441Z,22.50
2018-05-27T06:15:07.716Z,22.50
2018-05-27T06:17:34.757Z,23.10
2018-05-27T06:20:01.843Z,23.90
2018-05-27T06:22:28.189Z,23.80
2018-05-27T06:24:54.469Z,24.50
2018-05-27T06:27:20.780Z,24.80
2018-05-27T06:29:47.048Z,25.00
2018-05-27T06:32:13.329Z,25.20
2018-05-27T06:34:39.647Z,25.40
2018-05-27T06:37:05.923Z,25.60
2018-05-27T06:39:32.981Z,26.70
2018-05-27T06:42:00.015Z,27.50
2018-05-27T06:44:27.057Z,28.30
2018-05-27T06:46:53.325Z,28.20
2018-05-27T06:49:19.628Z,29.10
2018-05-27T06:51:45.896Z,30.00
2018-05-27T06:54:12.204Z,30.80
2018-05-27T06:56:39.224Z,32.40
2018-05-27T06:59:05.490Z,32.40
2018-05-27T07:01:31.753Z,33.10
2018-05-27T07:03:58.028Z,33.60
2018-05-27T07:06:25.038Z,34.10
2018-05-27T07:08:51.319Z,34.10
2018-05-27T07:11:17.628Z,34.60
2018-05-27T07:13:43.909Z,35.00
2018-05-27T07:16:10.183Z,35.70
2018-05-27T07:18:37.232Z,36.50
2018-05-27T07:21:03.482Z,36.50
2018-05-27T07:23:30.492Z,37.10
2018-05-27T07:25:57.233Z,37.00
2018-05-27T07:28:24.334Z,37.40
2018-05-27T07:30:51.426Z,38.30
2018-05-27T07:33:18.342Z,38.30
2018-05-27T07:35:45.807Z,38.50
2018-05-27T07:38:13.979Z,38.70
2018-05-27T07:40:40.546Z,39.10
2018-05-27T07:43:06.811Z,39.40
2018-05-27T07:45:33.079Z,39.90
2018-05-27T07:47:59.398Z,40.80
2018-05-27T07:50:25.672Z,41.40
2018-05-27T07:52:52.694Z,42.80
2018-05-27T07:55:18.978Z,42.70
2018-05-27T07:57:45.258Z,43.80
2018-05-27T08:00:11.514Z,44.70
2018-05-27T08:02:37.813Z,45.00
2018-05-27T08:05:04.077Z,45.00
2018-05-27T08:07:31.087Z,44.80
2018-05-27T08:09:57.424Z,44.70
2018-05-27T08:12:23.676Z,44.60
2018-05-27T08:14:49.935Z,44.90
2018-05-27T08:17:16.992Z,44.30
2018-05-27T08:19:43.303Z,44.30
2018-05-27T08:22:09.604Z,44.60
2018-05-27T08:24:35.980Z,45.00
2018-05-27T08:27:02.333Z,45.60
2018-05-27T08:29:28.630Z,45.70
2018-05-27T08:31:54.956Z,45.80
2018-05-27T08:34:21.294Z,45.90
2018-05-27T08:36:47.633Z,46.10
2018-05-27T08:39:13.944Z,46.60
2018-05-27T08:41:40.964Z,47.40
2018-05-27T08:44:07.287Z,47.50
2018-05-27T08:46:33.603Z,48.10
2018-05-27T08:48:59.906Z,47.30
2018-05-27T08:51:26.218Z,46.10
2018-05-27T08:53:52.562Z,44.90
2018-05-27T08:56:18.814Z,43.20
2018-05-27T08:58:45.125Z,41.40
2018-05-27T09:01:11.494Z,39.90
2018-05-27T09:03:37.795Z,38.70
2018-05-27T09:06:04.817Z,36.20
2018-05-27T09:08:31.857Z,35.30
2018-05-27T09:10:58.874Z,34.30
2018-05-27T09:13:25.131Z,34.20
2018-05-27T09:15:52.153Z,33.30
2018-05-27T09:18:18.407Z,33.20
2018-05-27T09:20:44.647Z,33.00
2018-05-27T09:23:11.659Z,32.60
2018-05-27T09:25:37.966Z,32.50
2018-05-27T09:28:04.250Z,32.40
2018-05-27T09:30:31.314Z,32.00
2018-05-27T09:32:58.310Z,31.80
2018-05-27T09:35:24.581Z,31.80
2018-05-27T09:37:50.897Z,31.80
2018-05-27T09:40:17.967Z,31.80
2018-05-27T09:42:44.269Z,31.90
2018-05-27T09:45:11.371Z,31.80
2018-05-27T09:47:37.592Z,31.80
2018-05-27T09:50:03.928Z,31.80
2018-05-27T09:52:30.252Z,31.70
2018-05-27T09:54:56.524Z,31.80
2018-05-27T09:57:22.798Z,31.80
2018-05-27T09:59:49.858Z,31.60
2018-05-27T10:02:16.142Z,31.60
2018-05-27T10:04:42.416Z,31.70
2018-05-27T10:07:08.757Z,31.70
2018-05-27T10:09:35.040Z,31.90
2018-05-27T10:12:02.106Z,32.20
2018-05-27T10:14:28.415Z,32.20
2018-05-27T10:16:54.715Z,32.10
2018-05-27T10:19:21.007Z,31.90
2018-05-27T10:21:47.335Z,31.80
2018-05-27T10:24:13.670Z,31.70
2018-05-27T10:26:39.958Z,31.60
2018-05-27T10:29:07.024Z,31.60
2018-05-27T10:31:34.015Z,31.70
2018-05-27T10:34:00.366Z,31.60
2018-05-27T10:36:26.674Z,31.80
2018-05-27T10:38:53.029Z,31.90
2018-05-27T10:41:19.297Z,31.90
2018-05-27T10:43:45.598Z,31.90
2018-05-27T10:46:11.879Z,31.90
2018-05-27T10:48:38.143Z,32.00
2018-05-27T10:51:04.437Z,31.90
2018-05-27T10:53:30.753Z,32.00
2018-05-27T10:55:57.069Z,32.10
2018-05-27T10:58:24.113Z,32.00
2018-05-27T11:00:50.390Z,32.00
2018-05-27T11:03:16.695Z,31.90
2018-05-27T11:05:43.032Z,31.90
2018-05-27T11:08:10.002Z,31.60
2018-05-27T11:10:36.292Z,31.60
2018-05-27T11:13:02.626Z,31.60
2018-05-27T11:15:28.922Z,31.60
2018-05-27T11:17:55.169Z,31.70
2018-05-27T11:20:22.203Z,31.50
2018-05-27T11:22:48.465Z,31.50
2018-05-27T11:25:14.763Z,31.60
2018-05-27T11:27:41.072Z,31.60
2018-05-27T11:30:07.367Z,31.50
2018-05-27T11:32:34.396Z,31.40
2018-05-27T11:35:01.435Z,31.30
2018-05-27T11:37:28.501Z,31.20
2018-05-27T11:39:54.814Z,31.10
2018-05-27T11:42:21.874Z,31.20
2018-05-27T11:44:48.193Z,31.20
2018-05-27T11:47:15.250Z,31.30
2018-05-27T11:49:41.549Z,31.30
2018-05-27T11:52:08.571Z,31.10
2018-05-27T11:54:34.893Z,31.10
2018-05-27T11:57:01.248Z,31.00
2018-05-27T11:59:27.914Z,30.90
2018-05-27T12:01:54.292Z,30.90
2018-05-27T12:04:20.615Z,30.70
2018-05-27T12:06:46.880Z,30.70
2018-05-27T12:09:14.737Z,30.50
2018-05-27T12:11:40.959Z,30.60
2018-05-27T12:14:07.284Z,30.60
2018-05-27T12:16:33.569Z,30.60
2018-05-27T12:18:59.865Z,30.70
2018-05-27T12:21:26.910Z,31.10
2018-05-27T12:23:53.182Z,31.00
2018-05-27T12:26:20.250Z,31.30
2018-05-27T12:28:46.532Z,31.30
2018-05-27T12:31:12.799Z,31.40
2018-05-27T12:33:39.103Z,31.50
2018-05-27T12:36:05.363Z,31.70
2018-05-27T12:38:31.681Z,31.70
2018-05-27T12:40:57.992Z,31.70
2018-05-27T12:43:25.014Z,31.90
2018-05-27T12:45:51.294Z,31.80
2018-05-27T12:48:17.602Z,31.90
2018-05-27T12:50:43.962Z,31.90
2018-05-27T12:53:10.285Z,31.90
2018-05-27T12:55:37.108Z,31.90
2018-05-27T12:58:03.621Z,31.90
2018-05-27T13:00:29.915Z,32.00
2018-05-27T13:02:56.230Z,31.90
2018-05-27T13:05:22.514Z,31.90
2018-05-27T13:07:48.805Z,31.90
2018-05-27T13:10:15.174Z,31.90
2018-05-27T13:12:41.450Z,31.70
2018-05-27T13:15:07.750Z,31.70
2018-05-27T13:17:34.813Z,31.50
2018-05-27T13:20:01.136Z,31.50
2018-05-27T13:22:28.289Z,31.60
2018-05-27T13:24:54.789Z,31.60
2018-05-27T13:27:21.042Z,31.60
2018-05-27T13:29:48.053Z,31.40
2018-05-27T13:32:14.356Z,31.30
2018-05-27T13:34:40.693Z,31.30
2018-05-27T13:37:06.989Z,31.30
2018-05-27T13:39:34.033Z,31.30
2018-05-27T13:42:01.173Z,31.40
2018-05-27T13:44:28.235Z,31.50
2018-05-27T13:46:55.276Z,31.50
2018-05-27T13:49:21.561Z,31.50
2018-05-27T13:51:47.917Z,31.50
2018-05-27T13:54:14.306Z,31.40
2018-05-27T13:56:40.638Z,31.30
2018-05-27T13:59:06.940Z,31.30
2018-05-27T14:01:33.260Z,31.30
2018-05-27T14:03:59.596Z,31.20
2018-05-27T14:06:26.635Z,31.20
2018-05-27T14:08:53.677Z,31.10
2018-05-27T14:11:19.976Z,31.10
2018-05-27T14:13:46.351Z,31.10
2018-05-27T14:16:13.410Z,31.10
2018-05-27T14:18:39.719Z,31.10
2018-05-27T14:21:06.861Z,31.10
2018-05-27T14:23:33.204Z,31.10
2018-05-27T14:26:15.864Z,31.20
2018-05-27T14:28:42.211Z,31.20
2018-05-27T14:31:08.486Z,31.20
2018-05-27T14:33:35.566Z,31.30
2018-05-27T14:36:02.641Z,31.30
2018-05-27T14:38:28.949Z,31.30
2018-05-27T14:40:55.206Z,31.40
2018-05-27T14:43:21.546Z,31.40
2018-05-27T14:45:47.839Z,31.40
2018-05-27T14:48:14.181Z,31.30
2018-05-27T14:50:40.509Z,31.30
2018-05-27T14:53:06.821Z,31.30
2018-05-27T14:55:33.165Z,31.30
2018-05-27T14:57:59.587Z,31.30
2018-05-27T15:00:25.840Z,31.30
2018-05-27T15:02:52.150Z,31.30
2018-05-27T15:05:18.468Z,31.30
2018-05-27T15:07:45.480Z,31.20
2018-05-27T15:10:12.522Z,31.20
2018-05-27T15:12:38.834Z,31.10
2018-05-27T15:15:05.149Z,31.10
2018-05-27T15:17:31.477Z,31.10
2018-05-27T15:19:57.854Z,31.00
2018-05-27T15:22:24.106Z,30.90
2018-05-27T15:24:50.401Z,30.70
2018-05-27T15:27:16.751Z,30.70
2018-05-27T15:29:43.792Z,30.40
2018-05-27T15:32:10.860Z,30.20
2018-05-27T15:34:37.152Z,30.20
2018-05-27T15:37:03.450Z,30.10
2018-05-27T15:39:29.752Z,30.00
2018-05-27T15:41:56.079Z,29.80
2018-05-27T15:44:22.428Z,29.70
2018-05-27T15:46:48.757Z,29.60
2018-05-27T15:49:15.798Z,29.40
2018-05-27T15:51:42.097Z,29.40
2018-05-27T15:54:08.391Z,29.30
2018-05-27T15:56:34.709Z,29.30
2018-05-27T15:59:01.003Z,29.20
2018-05-27T16:01:28.021Z,29.10
2018-05-27T16:03:54.372Z,29.10
2018-05-27T16:06:20.678Z,29.00
2018-05-27T16:08:46.996Z,29.00
2018-05-27T16:11:13.624Z,28.90
2018-05-27T16:13:39.937Z,28.90
2018-05-27T16:16:06.229Z,28.90
2018-05-27T16:18:34.276Z,28.90
2018-05-27T16:21:00.614Z,28.90
2018-05-27T16:23:26.945Z,28.80
2018-05-27T16:25:53.267Z,28.90
2018-05-27T16:28:19.580Z,28.80
2018-05-27T16:30:45.999Z,28.80
2018-05-27T16:33:13.009Z,28.80
2018-05-27T16:35:41.578Z,28.70
2018-05-27T16:38:08.905Z,28.70
2018-05-27T16:40:35.338Z,28.60
2018-05-27T16:43:01.771Z,28.50
2018-05-27T16:45:28.970Z,28.30
2018-05-27T16:47:55.444Z,28.30
2018-05-27T16:50:21.816Z,28.30
2018-05-27T16:52:48.193Z,28.20
2018-05-27T16:55:14.569Z,28.10
2018-05-27T16:57:41.833Z,27.90
2018-05-27T17:00:09.009Z,27.80
2018-05-27T17:02:35.357Z,27.80
2018-05-27T17:05:01.792Z,27.70
2018-05-27T17:07:28.324Z,27.70
2018-05-27T17:09:54.866Z,27.60
2018-05-27T17:12:23.111Z,27.50
2018-05-27T17:14:49.508Z,27.50
2018-05-27T17:17:16.693Z,27.30
2018-05-27T17:19:43.058Z,27.30
2018-05-27T17:22:10.337Z,27.20
2018-05-27T17:24:36.798Z,27.20
2018-05-27T17:27:03.073Z,27.20
2018-05-27T17:29:29.470Z,27.10
2018-05-27T17:31:56.584Z,27.00
2018-05-27T17:34:22.933Z,27.00
2018-05-27T17:36:49.237Z,27.10
2018-05-27T17:39:15.549Z,27.00
2018-05-27T17:41:41.841Z,27.00
2018-05-27T17:44:08.089Z,27.00
2018-05-27T17:46:34.504Z,26.90
2018-05-27T17:49:01.583Z,26.90
2018-05-27T17:51:27.908Z,26.80
2018-05-27T17:53:55.021Z,26.80
2018-05-27T17:56:21.340Z,26.80
2018-05-27T17:58:47.612Z,26.80
2018-05-27T18:01:14.642Z,26.70
2018-05-27T18:03:41.656Z,26.70
2018-05-27T18:06:08.754Z,26.60
2018-05-27T18:08:35.792Z,26.60
2018-05-27T18:11:02.838Z,26.60
2018-05-27T18:13:29.378Z,26.60
2018-05-27T18:15:56.411Z,26.40
2018-05-27T18:18:22.697Z,26.40
2018-05-27T18:20:48.951Z,26.40
2018-05-27T18:23:15.253Z,26.40
2018-05-27T18:25:41.571Z,26.30
2018-05-27T18:28:07.844Z,26.20
2018-05-27T18:30:34.302Z,26.20
2018-05-27T18:33:00.592Z,26.10
2018-05-27T18:35:26.895Z,26.10
2018-05-27T18:37:53.305Z,26.00
2018-05-27T18:40:19.582Z,26.00
2018-05-27T18:42:45.876Z,25.90
2018-05-27T18:45:12.304Z,25.90
2018-05-27T18:47:38.671Z,25.90
2018-05-27T18:50:04.981Z,25.90
2018-05-27T18:52:31.308Z,25.80
2018-05-27T18:54:57.604Z,25.80
2018-05-27T18:57:23.904Z,25.70
2018-05-27T18:59:50.236Z,25.70
2018-05-27T19:02:16.482Z,25.60
2018-05-27T19:04:42.831Z,25.70
2018-05-27T19:07:09.210Z,25.60
2018-05-27T19:09:35.513Z,25.60
2018-05-27T19:12:01.775Z,25.50
2018-05-27T19:14:28.090Z,25.50
2018-05-27T19:16:54.403Z,25.40
2018-05-27T19:19:20.666Z,25.40
2018-05-27T19:21:47.017Z,25.40
2018-05-27T19:24:13.372Z,25.30
2018-05-27T19:26:40.456Z,25.20
2018-05-27T19:29:06.740Z,25.20
2018-05-27T19:31:33.034Z,25.20
2018-05-27T19:33:59.342Z,25.10
2018-05-27T19:36:25.632Z,25.00
2018-05-27T19:38:51.874Z,24.90
2018-05-27T19:41:19.067Z,24.80
2018-05-27T19:43:45.373Z,24.70
2018-05-27T19:46:11.663Z,24.70
2018-05-27T19:48:38.065Z,24.70
2018-05-27T19:51:04.427Z,24.60
2018-05-27T19:53:30.701Z,24.60
2018-05-27T19:55:57.042Z,24.50
2018-05-27T19:58:23.378Z,24.40
2018-05-27T20:00:49.663Z,24.40
2018-05-27T20:03:16.718Z,24.30
2018-05-27T20:05:43.058Z,24.30
2018-05-27T20:08:09.365Z,24.30
2018-05-27T20:10:35.661Z,24.20
2018-05-27T20:13:01.990Z,24.20
2018-05-27T20:15:28.375Z,24.20
2018-05-27T20:17:54.676Z,24.20
2018-05-27T20:20:21.004Z,24.20
2018-05-27T20:22:47.391Z,24.10
2018-05-27T20:25:13.673Z,24.10
2018-05-27T20:27:40.024Z,24.10
2018-05-27T20:30:07.043Z,24.00
2018-05-27T20:32:33.368Z,23.90
2018-05-27T20:34:59.657Z,23.90
2018-05-27T20:37:25.940Z,23.90
2018-05-27T20:39:52.313Z,23.80
2018-05-27T20:42:18.652Z,23.70
2018-05-27T20:44:44.973Z,23.60
2018-05-27T20:47:11.335Z,23.60
2018-05-27T20:49:37.715Z,23.60
2018-05-27T20:52:04.789Z,23.40
2018-05-27T20:54:31.106Z,23.40
2018-05-27T20:56:57.392Z,23.30
2018-05-27T20:59:23.678Z,23.30
2018-05-27T21:01:49.974Z,23.30
2018-05-27T21:04:16.357Z,23.20
2018-05-27T21:06:42.686Z,23.10
2018-05-27T21:09:09.041Z,23.00
2018-05-27T21:11:35.437Z,23.00
2018-05-27T21:14:01.752Z,22.90
2018-05-27T21:16:28.802Z,22.70
2018-05-27T21:18:55.942Z,22.70
2018-05-27T21:21:22.206Z,22.60
2018-05-27T21:23:48.564Z,22.60
2018-05-27T21:26:15.030Z,22.50
2018-05-27T21:28:42.133Z,22.30
2018-05-27T21:31:08.430Z,22.30
2018-05-27T21:33:34.827Z,22.20
2018-05-27T21:36:01.320Z,22.20
2018-05-27T21:38:27.793Z,22.10
2018-05-27T21:40:54.088Z,22.00
2018-05-27T21:43:20.372Z,22.00
2018-05-27T21:45:46.836Z,21.90
2018-05-27T21:48:13.183Z,21.90
2018-05-27T21:50:39.494Z,21.80
2018-05-27T21:53:05.875Z,21.80
2018-05-27T21:55:32.245Z,21.70
2018-05-27T21:57:59.270Z,21.60
2018-05-27T22:00:27.396Z,21.60
2018-05-27T22:02:53.693Z,21.60
2018-05-27T22:05:20.585Z,21.60
2018-05-27T22:07:47.249Z,21.60
2018-05-27T22:10:14.525Z,21.50
2018-05-27T22:12:41.530Z,21.50
2018-05-27T22:15:07.931Z,21.50
2018-05-27T22:17:34.243Z,21.50
2018-05-27T22:20:01.302Z,21.40
2018-05-27T22:22:27.656Z,21.40
2018-05-27T22:24:54.012Z,21.40
2018-05-27T22:27:20.314Z,21.40
2018-05-27T22:29:46.935Z,21.30
2018-05-27T22:32:13.224Z,21.20
2018-05-27T22:34:39.482Z,21.20
2018-05-27T22:37:06.499Z,21.10
2018-05-27T22:39:32.814Z,21.10
2018-05-27T22:41:59.081Z,21.10
2018-05-27T22:44:26.071Z,21.00
2018-05-27T22:46:52.363Z,21.00
2018-05-27T22:49:19.366Z,21.00
2018-05-27T22:51:45.676Z,21.00
2018-05-27T22:54:12.069Z,21.00
2018-05-27T22:56:39.061Z,21.00
2018-05-27T22:59:05.367Z,20.90
2018-05-27T23:01:31.674Z,21.00
2018-05-27T23:03:58.685Z,21.10
2018-05-27T23:06:24.951Z,21.00
2018-05-27T23:08:51.983Z,21.00
2018-05-27T23:11:19.733Z,20.90
2018-05-27T23:13:45.997Z,21.00
2018-05-27T23:16:12.310Z,20.90
2018-05-27T23:18:38.608Z,20.90
2018-05-27T23:21:04.922Z,20.90
2018-05-27T23:23:31.226Z,20.90
2018-05-27T23:25:57.492Z,20.80
2018-05-27T23:28:23.744Z,20.90
2018-05-27T23:30:50.797Z,20.80
2018-05-27T23:33:17.064Z,20.80
2018-05-27T23:35:44.062Z,20.70
2018-05-27T23:38:10.351Z,20.70
2018-05-27T23:40:36.614Z,20.70
2018-05-27T23:43:02.871Z,20.70
2018-05-27T23:45:29.902Z,20.60
2018-05-27T23:47:56.143Z,20.50
2018-05-27T23:50:22.403Z,20.50
2018-05-27T23:52:48.748Z,20.50
2018-05-27T23:55:15.004Z,20.50
2018-05-27T23:57:41.281Z,20.50
